Time;durP1;ratioP1;P1;durP2;ratioP2;P2;SDS_P1;SDS_P2;PMS_P1;PMS_P2;Temp;Humidity;BMP_temperature;BMP_pressure;BME280_temperature;BME280_humidity;BME280_pressure;Samples;Min_cycle;Max_cycle;Signal;HPM_P1;HPM_P2
2022/02/04 00:09:04;;;;;;;;;;;21.60;42.40;;;;;;694262;28;656;-87
2022/02/04 00:20:10;;;;;;;;;;;21.50;42.50;;;;;;691656;28;640;-87
2022/02/04 00:22:37;;;;;;;;;;;21.40;42.70;;;;;;686140;28;621;-89
2022/02/04 00:23:29;;;;;;;;;;;21.40;42.70;;;;;;686123;28;1509;-89
2022/02/04 00:23:51;;;;;;;;;;;21.40;42.60;;;;;;686106;28;1250;-91
2022/02/04 00:24:13;;;;;;;;;;;21.50;42.70;;;;;;686228;28;1341;-89
2022/02/04 00:24:34;;;;;;;;;;;21.40;42.70;;;;;;686136;28;1217;-90
2022/02/04 00:24:59;;;;;;;;;;;21.40;42.70;;;;;;686203;28;893;-91
2022/02/04 00:25:35;;;;;;;;;;;21.40;42.80;;;;;;686024;28;1369;-89
2022/02/04 00:26:14;;;;;;;;;;;21.40;42.80;;;;;;683445;29;1326;-89
2022/02/04 00:26:45;;;;;;;;;;;21.40;42.80;;;;;;680719;29;1368;-84
2022/02/04 00:27:11;;;;;;;;;;;21.40;42.80;;;;;;681524;29;906;-88
2022/02/04 00:27:32;;;;;;;;;;;21.40;42.80;;;;;;683511;29;890;-88
2022/02/04 00:27:55;;;;;;;;;;;21.40;42.80;;;;;;686082;28;1256;-88
2022/02/04 00:29:20;;;;;;;;;;;21.40;42.80;;;;;;686154;28;1481;-87
2022/02/04 00:29:56;;;;;;;;;;;21.40;42.70;;;;;;686018;28;1395;-84
2022/02/04 00:30:24;;;;;;;;;;;21.40;42.80;;;;;;685824;28;1413;-86
2022/02/04 00:30:49;;;;;;;;;;;21.40;42.80;;;;;;685933;28;903;-90
2022/02/04 00:31:35;;;;;;;;;;;21.40;42.80;;;;;;684975;28;913;-88
2022/02/04 00:32:02;;;;;;;;;;;21.40;42.80;;;;;;683333;29;1353;-86
2022/02/04 00:32:25;;;;;;;;;;;21.40;42.80;;;;;;685980;28;1226;-88
2022/02/04 00:32:48;;;;;;;;;;;21.40;42.70;;;;;;688701;28;897;-87
2022/02/04 00:33:11;;;;;;;;;;;21.40;42.80;;;;;;688992;28;1361;-89
2022/02/04 00:33:34;;;;;;;;;;;21.40;42.80;;;;;;688750;28;1018;-88
2022/02/04 00:34:01;;;;;;;;;;;21.40;42.80;;;;;;688630;28;1902;-88
2022/02/04 00:34:24;;;;;;;;;;;21.40;42.80;;;;;;688296;28;1228;-87
2022/02/04 00:34:50;;;;;;;;;;;21.40;42.80;;;;;;688486;28;1339;-87
2022/02/04 00:36:01;;;;;;;;;;;21.40;42.70;;;;;;691467;28;953;-87
2022/02/04 00:36:39;;;;;;;;;;;21.40;42.80;;;;;;693771;28;1409;-88
2022/02/04 00:37:58;;;;;;;;;;;21.40;42.80;;;;;;696872;28;1398;-87
2022/02/04 00:38:43;;;;;;;;;;;21.40;42.80;;;;;;694036;28;1133;-88
2022/02/04 00:39:09;;;;;;;;;;;21.40;42.80;;;;;;694194;28;1266;-87
2022/02/04 00:39:37;;;;;;;;;;;21.40;42.80;;;;;;694157;28;1268;-87
2022/02/04 00:40:08;;;;;;;;;;;21.40;42.80;;;;;;694154;28;1480;-86
2022/02/04 00:40:34;;;;;;;;;;;21.40;42.80;;;;;;694127;28;839;-88
2022/02/04 00:41:01;;;;;;;;;;;21.40;42.70;;;;;;694092;28;1250;-86
2022/02/04 00:41:26;;;;;;;;;;;21.40;42.80;;;;;;692923;28;1240;-86
2022/02/04 00:41:47;;;;;;;;;;;21.40;42.80;;;;;;694321;28;841;-89
2022/02/04 00:42:10;;;;;;;;;;;21.40;42.80;;;;;;694484;28;798;-89
2022/02/04 00:42:30;;;;;;;;;;;21.40;42.80;;;;;;694109;28;1647;-88
2022/02/04 00:42:54;;;;;;;;;;;21.40;42.80;;;;;;692152;28;1063;-89
2022/02/04 00:43:16;;;;;;;;;;;21.40;42.80;;;;;;693016;28;826;-87
2022/02/04 00:43:39;;;;;;;;;;;21.40;42.80;;;;;;691558;28;1255;-88
2022/02/04 00:44:01;;;;;;;;;;;21.40;42.80;;;;;;691554;28;1334;-89
2022/02/04 00:44:28;;;;;;;;;;;21.40;42.80;;;;;;692879;28;866;-88
2022/02/04 00:44:55;;;;;;;;;;;21.40;42.80;;;;;;694158;28;1266;-88
2022/02/04 00:45:22;;;;;;;;;;;21.40;42.70;;;;;;694266;28;850;-88
2022/02/04 00:46:15;;;;;;;;;;;21.40;42.90;;;;;;697158;28;1413;-86
2022/02/04 00:46:51;;;;;;;;;;;21.40;42.80;;;;;;697137;28;841;-87
2022/02/04 00:47:17;;;;;;;;;;;21.40;42.80;;;;;;697314;28;916;-89
2022/02/04 00:47:43;;;;;;;;;;;21.30;42.70;;;;;;697221;28;878;-89
2022/02/04 00:48:22;;;;;;;;;;;21.30;42.80;;;;;;694395;28;1250;-86
2022/02/04 00:49:00;;;;;;;;;;;21.30;42.70;;;;;;694440;28;1361;-86
2022/02/04 00:49:31;;;;;;;;;;;21.30;42.80;;;;;;694286;28;1108;-87
2022/02/04 00:50:07;;;;;;;;;;;21.30;42.70;;;;;;686832;28;1373;-89
2022/02/04 00:50:38;;;;;;;;;;;21.30;42.80;;;;;;688885;28;1725;-90
2022/02/04 00:52:08;;;;;;;;;;;21.30;42.80;;;;;;693347;28;862;-87
2022/02/04 00:52:46;;;;;;;;;;;21.30;42.70;;;;;;694282;28;830;-90
2022/02/04 00:53:19;;;;;;;;;;;21.30;42.80;;;;;;691226;28;1272;-88
2022/02/04 00:53:51;;;;;;;;;;;21.30;42.70;;;;;;691524;28;1981;-90
2022/02/04 00:54:25;;;;;;;;;;;21.30;42.70;;;;;;691445;28;803;-89
2022/02/04 00:54:59;;;;;;;;;;;21.30;42.80;;;;;;691624;28;882;-90
2022/02/04 00:55:29;;;;;;;;;;;21.30;42.70;;;;;;694159;28;1365;-89
2022/02/04 00:56:20;;;;;;;;;;;21.30;42.80;;;;;;696897;28;1346;-89
2022/02/04 00:56:42;;;;;;;;;;;21.30;42.80;;;;;;701948;28;1694;-90
2022/02/04 00:57:11;;;;;;;;;;;21.30;42.70;;;;;;702834;28;1341;-84
2022/02/04 01:13:16;;;;;;;;;;;21.30;42.80;;;;;;686120;28;1554;-81
2022/02/04 01:25:52;;;;;;;;;;;21.30;42.80;;;;;;689138;28;1175;-86
2022/02/04 01:26:32;;;;;;;;;;;21.20;42.40;;;;;;679684;29;1002;-87
2022/02/04 01:26:53;;;;;;;;;;;21.20;42.50;;;;;;680537;29;844;-91
2022/02/04 01:27:14;;;;;;;;;;;21.20;42.40;;;;;;680077;29;1704;-88
2022/02/04 01:27:35;;;;;;;;;;;21.20;42.40;;;;;;680669;29;1143;-89
2022/02/04 01:27:55;;;;;;;;;;;21.20;42.40;;;;;;678535;29;843;-87
2022/02/04 01:28:16;;;;;;;;;;;21.20;42.30;;;;;;678191;29;851;-85
2022/02/04 01:28:39;;;;;;;;;;;21.20;42.30;;;;;;678521;29;999;-87
2022/02/04 01:29:00;;;;;;;;;;;21.20;42.20;;;;;;677499;29;1376;-89
2022/02/04 01:29:22;;;;;;;;;;;21.20;42.20;;;;;;675196;29;1149;-86
2022/02/04 01:29:55;;;;;;;;;;;21.20;42.30;;;;;;675284;29;1405;-89
2022/02/04 01:30:19;;;;;;;;;;;21.20;42.40;;;;;;677959;29;1401;-88
2022/02/04 01:30:42;;;;;;;;;;;21.20;42.40;;;;;;678034;29;1285;-87
2022/02/04 01:31:03;;;;;;;;;;;21.20;42.30;;;;;;672788;29;1249;-90
2022/02/04 01:31:24;;;;;;;;;;;21.20;42.40;;;;;;675317;29;1425;-94
2022/02/04 01:31:45;;;;;;;;;;;21.20;42.70;;;;;;672662;29;1081;-86
2022/02/04 01:32:08;;;;;;;;;;;21.20;43.70;;;;;;672789;29;1245;-91
2022/02/04 01:32:28;;;;;;;;;;;21.30;45.00;;;;;;671662;29;1231;-89
2022/02/04 01:32:49;;;;;;;;;;;21.20;45.10;;;;;;673349;29;1422;-86
2022/02/04 01:33:12;;;;;;;;;;;21.20;44.70;;;;;;675279;29;1412;-87
2022/02/04 01:33:34;;;;;;;;;;;21.30;45.60;;;;;;675078;29;1319;-87
2022/02/04 01:33:55;;;;;;;;;;;21.30;45.50;;;;;;676084;29;1969;-87
2022/02/04 01:34:15;;;;;;;;;;;21.30;46.10;;;;;;676838;29;1756;-88
2022/02/04 01:34:36;;;;;;;;;;;21.30;46.40;;;;;;677284;29;1265;-84
2022/02/04 01:34:57;;;;;;;;;;;21.30;46.50;;;;;;675363;29;1119;-87
2022/02/04 01:35:17;;;;;;;;;;;21.30;46.00;;;;;;677808;29;1270;-86
2022/02/04 01:35:38;;;;;;;;;;;21.30;47.30;;;;;;678113;29;807;-87
2022/02/04 01:35:59;;;;;;;;;;;21.40;48.00;;;;;;678016;29;870;-87
2022/02/04 01:36:20;;;;;;;;;;;21.30;48.00;;;;;;677930;29;945;-87
2022/02/04 01:36:41;;;;;;;;;;;21.30;48.30;;;;;;675315;29;1210;-88
2022/02/04 01:37:01;;;;;;;;;;;21.30;48.20;;;;;;675012;29;1690;-88
2022/02/04 01:37:22;;;;;;;;;;;21.30;48.00;;;;;;671202;29;1532;-87
2022/02/04 01:37:42;;;;;;;;;;;21.40;47.90;;;;;;667746;29;840;-87
2022/02/04 01:38:03;;;;;;;;;;;21.40;47.90;;;;;;667668;29;955;-86
2022/02/04 01:38:24;;;;;;;;;;;21.40;47.40;;;;;;667857;29;996;-85
2022/02/04 01:38:45;;;;;;;;;;;21.40;47.20;;;;;;670300;29;863;-86
2022/02/04 01:39:06;;;;;;;;;;;21.40;46.90;;;;;;670255;29;938;-85
2022/02/04 01:39:26;;;;;;;;;;;21.40;46.60;;;;;;670160;29;1074;-86
2022/02/04 01:39:47;;;;;;;;;;;21.40;46.30;;;;;;670171;29;840;-87
2022/02/04 01:40:08;;;;;;;;;;;21.40;46.10;;;;;;670227;29;800;-85
2022/02/04 01:40:29;;;;;;;;;;;21.40;45.90;;;;;;669870;29;1683;-84
2022/02/04 01:40:49;;;;;;;;;;;21.50;45.70;;;;;;670103;29;1245;-86
2022/02/04 01:41:10;;;;;;;;;;;21.50;45.60;;;;;;670292;29;1706;-89
2022/02/04 01:41:31;;;;;;;;;;;21.40;45.40;;;;;;670215;29;948;-86
2022/02/04 01:41:51;;;;;;;;;;;21.50;45.30;;;;;;670201;29;808;-84
2022/02/04 01:42:12;;;;;;;;;;;21.50;45.20;;;;;;670214;29;883;-85
2022/02/04 01:42:33;;;;;;;;;;;21.50;45.10;;;;;;670054;29;1391;-87
2022/02/04 01:42:53;;;;;;;;;;;21.50;45.00;;;;;;672738;29;1424;-87
2022/02/04 01:43:17;;;;;;;;;;;21.50;44.90;;;;;;672769;29;872;-83
2022/02/04 01:43:38;;;;;;;;;;;21.50;44.80;;;;;;672798;29;911;-86
2022/02/04 01:43:58;;;;;;;;;;;21.50;44.70;;;;;;672750;29;848;-85
2022/02/04 01:44:20;;;;;;;;;;;21.50;44.70;;;;;;672634;29;880;-88
2022/02/04 01:44:40;;;;;;;;;;;21.50;44.60;;;;;;672858;29;990;-86
2022/02/04 01:45:01;;;;;;;;;;;21.50;44.60;;;;;;672709;29;1299;-85
2022/02/04 01:45:22;;;;;;;;;;;21.50;44.60;;;;;;672698;29;1099;-88
2022/02/04 01:45:42;;;;;;;;;;;21.50;44.50;;;;;;672845;29;864;-88
2022/02/04 01:46:04;;;;;;;;;;;21.50;44.50;;;;;;674979;29;1138;-86
2022/02/04 01:46:25;;;;;;;;;;;21.50;44.30;;;;;;672681;29;1618;-84
2022/02/04 01:46:45;;;;;;;;;;;21.50;44.30;;;;;;672809;29;982;-84
2022/02/04 01:47:06;;;;;;;;;;;21.50;44.20;;;;;;672784;29;824;-85
2022/02/04 01:47:27;;;;;;;;;;;21.50;44.20;;;;;;672461;29;1409;-84
2022/02/04 01:47:56;;;;;;;;;;;21.50;44.20;;;;;;672677;29;875;-85
2022/02/04 01:48:17;;;;;;;;;;;21.50;44.20;;;;;;677902;29;864;-85
2022/02/04 01:48:38;;;;;;;;;;;21.50;44.10;;;;;;677999;29;788;-84
2022/02/04 01:48:59;;;;;;;;;;;21.50;44.10;;;;;;677866;29;851;-85
2022/02/04 01:49:20;;;;;;;;;;;21.60;44.20;;;;;;680463;29;1667;-85
2022/02/04 01:49:40;;;;;;;;;;;21.50;44.10;;;;;;683246;29;1031;-83
2022/02/04 01:50:01;;;;;;;;;;;21.50;44.00;;;;;;683113;29;783;-85
2022/02/04 01:50:25;;;;;;;;;;;21.60;44.10;;;;;;683149;29;1022;-84
2022/02/04 01:50:47;;;;;;;;;;;21.60;44.10;;;;;;680505;29;1392;-85
2022/02/04 01:51:09;;;;;;;;;;;21.50;43.90;;;;;;680657;29;895;-84
2022/02/04 01:51:30;;;;;;;;;;;21.50;43.90;;;;;;677820;29;1380;-86
2022/02/04 01:51:50;;;;;;;;;;;21.60;44.00;;;;;;677963;29;1042;-85
2022/02/04 01:52:11;;;;;;;;;;;21.60;44.00;;;;;;678035;29;776;-84
2022/02/04 01:52:32;;;;;;;;;;;21.60;43.90;;;;;;678411;29;1446;-86
2022/02/04 01:52:56;;;;;;;;;;;21.60;43.90;;;;;;677182;29;1684;-88
2022/02/04 01:53:18;;;;;;;;;;;21.60;43.90;;;;;;676005;29;1249;-85
2022/02/04 01:53:39;;;;;;;;;;;21.50;43.90;;;;;;676729;29;1629;-85
2022/02/04 01:54:00;;;;;;;;;;;21.50;44.00;;;;;;677723;29;1980;-84
2022/02/04 01:54:20;;;;;;;;;;;21.50;44.10;;;;;;676659;29;1687;-84
2022/02/04 01:54:41;;;;;;;;;;;21.50;44.10;;;;;;676202;29;1271;-84
2022/02/04 01:55:02;;;;;;;;;;;21.50;44.10;;;;;;675206;29;1271;-85
2022/02/04 01:55:23;;;;;;;;;;;21.50;44.10;;;;;;672799;29;1390;-89
2022/02/04 01:55:45;;;;;;;;;;;21.50;44.10;;;;;;672660;29;1359;-87
2022/02/04 01:56:06;;;;;;;;;;;21.50;44.10;;;;;;672911;29;902;-87
2022/02/04 01:56:27;;;;;;;;;;;21.50;44.50;;;;;;673397;29;896;-84
2022/02/04 01:56:47;;;;;;;;;;;21.50;44.50;;;;;;678291;29;1372;-86
2022/02/04 01:57:08;;;;;;;;;;;21.50;44.60;;;;;;680664;29;952;-85
2022/02/04 01:57:29;;;;;;;;;;;21.50;44.60;;;;;;682476;29;1667;-86
2022/02/04 01:57:49;;;;;;;;;;;21.50;44.60;;;;;;684690;28;1631;-82
2022/02/04 01:58:11;;;;;;;;;;;21.50;44.60;;;;;;682782;29;851;-85
2022/02/04 01:58:31;;;;;;;;;;;21.60;44.60;;;;;;694147;28;1532;-84
2022/02/04 01:58:52;;;;;;;;;;;21.50;44.50;;;;;;693941;28;1145;-81
2022/02/04 01:59:13;;;;;;;;;;;21.50;44.60;;;;;;694550;28;807;-82
2022/02/04 01:59:33;;;;;;;;;;;21.50;44.60;;;;;;697231;28;957;-82
2022/02/04 01:59:54;;;;;;;;;;;21.50;44.50;;;;;;697415;28;1428;-84
2022/02/04 02:00:16;;;;;;;;;;;21.50;44.50;;;;;;696803;28;1150;-82
2022/02/04 02:00:37;;;;;;;;;;;21.50;44.50;;;;;;697304;28;925;-80
2022/02/04 02:00:57;;;;;;;;;;;21.50;44.50;;;;;;699399;28;1375;-82
2022/02/04 02:01:18;;;;;;;;;;;21.50;44.60;;;;;;699483;28;849;-85
2022/02/04 02:01:39;;;;;;;;;;;21.50;44.50;;;;;;699628;28;771;-84
2022/02/04 02:01:59;;;;;;;;;;;21.50;44.50;;;;;;699983;28;886;-83
2022/02/04 02:02:20;;;;;;;;;;;21.50;44.50;;;;;;702276;28;1418;-86
2022/02/04 02:02:40;;;;;;;;;;;21.50;44.50;;;;;;699480;28;1121;-83
2022/02/04 02:03:01;;;;;;;;;;;21.50;44.50;;;;;;696625;28;1295;-85
2022/02/04 02:03:22;;;;;;;;;;;21.40;44.40;;;;;;696739;28;838;-85
2022/02/04 02:03:42;;;;;;;;;;;21.50;44.50;;;;;;696584;28;1148;-87
2022/02/04 02:04:05;;;;;;;;;;;21.40;44.40;;;;;;696803;28;811;-83
2022/02/04 02:04:26;;;;;;;;;;;21.40;44.40;;;;;;696685;28;1368;-85
2022/02/04 02:04:47;;;;;;;;;;;21.50;44.30;;;;;;696211;28;1366;-85
2022/02/04 02:05:08;;;;;;;;;;;21.40;44.10;;;;;;696691;28;1445;-85
2022/02/04 02:05:28;;;;;;;;;;;21.40;44.20;;;;;;697545;28;865;-85
2022/02/04 02:05:51;;;;;;;;;;;21.40;43.90;;;;;;696546;28;1340;-84
2022/02/04 02:06:12;;;;;;;;;;;21.40;44.00;;;;;;697298;28;1323;-85
2022/02/04 02:07:02;;;;;;;;;;;21.40;43.90;;;;;;700056;28;802;-84
2022/02/04 02:07:25;;;;;;;;;;;21.40;43.80;;;;;;700682;28;1134;-84
2022/02/04 02:07:47;;;;;;;;;;;21.40;43.60;;;;;;704538;28;857;-85
2022/02/04 02:08:10;;;;;;;;;;;21.40;43.50;;;;;;705478;28;967;-85
2022/02/04 02:08:31;;;;;;;;;;;21.40;43.40;;;;;;702043;28;1351;-85
2022/02/04 02:08:51;;;;;;;;;;;21.40;43.40;;;;;;702204;28;805;-83
2022/02/04 02:09:12;;;;;;;;;;;21.40;43.30;;;;;;699337;28;1590;-84
2022/02/04 02:09:54;;;;;;;;;;;21.40;43.30;;;;;;699398;28;877;-84
2022/02/04 02:10:17;;;;;;;;;;;21.40;43.40;;;;;;699056;28;1385;-83
2022/02/04 02:10:38;;;;;;;;;;;21.40;43.40;;;;;;699579;28;825;-84
2022/02/04 02:10:58;;;;;;;;;;;21.30;43.50;;;;;;699315;28;1239;-84
2022/02/04 02:11:19;;;;;;;;;;;21.30;43.30;;;;;;699469;28;802;-84
2022/02/04 02:11:39;;;;;;;;;;;21.30;43.40;;;;;;696600;28;1190;-84
2022/02/04 02:12:04;;;;;;;;;;;21.30;43.30;;;;;;696553;28;1157;-82
2022/02/04 02:12:29;;;;;;;;;;;21.30;43.30;;;;;;696716;28;842;-84
2022/02/04 02:13:53;;;;;;;;;;;21.30;43.30;;;;;;699308;28;1922;-86
2022/02/04 02:14:16;;;;;;;;;;;21.30;43.30;;;;;;699439;28;822;-85
2022/02/04 02:14:38;;;;;;;;;;;21.30;43.30;;;;;;697418;28;1380;-84
2022/02/04 02:15:12;;;;;;;;;;;21.30;43.20;;;;;;699448;28;790;-84
2022/02/04 02:35:44;;;;;;;;;;;21.20;43.50;;;;;;691167;28;724;-83
2022/02/04 02:47:15;;;;;;;;;;;21.20;43.50;;;;;;677747;29;1126;-86
2022/02/04 02:47:43;;;;;;;;;;;21.20;43.50;;;;;;677708;29;1788;-84
2022/02/04 02:50:44;;;;;;;;;;;21.10;43.40;;;;;;677734;29;863;-86
2022/02/04 02:55:34;;;;;;;;;;;21.20;43.50;;;;;;674358;29;1050;-85
2022/02/04 02:58:31;;;;;;;;;;;21.10;43.40;;;;;;675105;29;657;-84
2022/02/04 02:59:03;;;;;;;;;;;21.10;43.40;;;;;;674787;29;1544;-80
2022/02/04 02:59:29;;;;;;;;;;;21.10;43.40;;;;;;672505;29;879;-84
2022/02/04 03:00:04;;;;;;;;;;;21.10;43.30;;;;;;672214;29;1473;-85
2022/02/04 03:01:06;;;;;;;;;;;21.10;43.40;;;;;;672676;29;685;-85
2022/02/04 03:01:28;;;;;;;;;;;21.10;43.40;;;;;;672604;29;839;-85
2022/02/04 03:01:50;;;;;;;;;;;21.10;43.40;;;;;;672470;29;800;-83
2022/02/04 03:02:11;;;;;;;;;;;21.10;43.40;;;;;;672465;29;1215;-85
2022/02/04 03:02:33;;;;;;;;;;;21.10;43.30;;;;;;672472;29;765;-85
2022/02/04 03:02:58;;;;;;;;;;;21.10;43.30;;;;;;672482;29;832;-84
2022/02/04 03:03:20;;;;;;;;;;;21.10;43.40;;;;;;672495;29;836;-86
2022/02/04 03:03:44;;;;;;;;;;;21.10;43.40;;;;;;672446;29;1166;-86
2022/02/04 03:04:08;;;;;;;;;;;21.10;43.30;;;;;;672681;29;1365;-85
2022/02/04 03:04:29;;;;;;;;;;;21.10;43.30;;;;;;673097;29;1101;-86
2022/02/04 03:04:49;;;;;;;;;;;21.10;43.30;;;;;;675140;29;549;-87
2022/02/04 03:05:10;;;;;;;;;;;21.10;43.30;;;;;;675081;29;1401;-87
2022/02/04 03:05:30;;;;;;;;;;;21.10;43.30;;;;;;675179;29;1461;-86
2022/02/04 03:05:51;;;;;;;;;;;21.10;43.30;;;;;;675141;29;851;-86
2022/02/04 03:06:11;;;;;;;;;;;21.10;43.30;;;;;;674605;29;981;-86
2022/02/04 03:06:32;;;;;;;;;;;21.10;43.20;;;;;;674670;29;1259;-85
2022/02/04 03:06:53;;;;;;;;;;;21.10;43.40;;;;;;674930;29;555;-85
2022/02/04 03:07:13;;;;;;;;;;;21.10;43.30;;;;;;672556;29;1429;-86
2022/02/04 03:07:34;;;;;;;;;;;21.10;43.30;;;;;;672700;29;845;-85
2022/02/04 03:07:55;;;;;;;;;;;21.10;43.30;;;;;;672618;29;848;-86
2022/02/04 03:08:15;;;;;;;;;;;21.10;43.40;;;;;;672719;29;832;-86
2022/02/04 03:08:36;;;;;;;;;;;21.10;43.30;;;;;;675160;29;868;-86
2022/02/04 03:08:57;;;;;;;;;;;21.10;43.30;;;;;;675039;29;1299;-86
2022/02/04 03:09:17;;;;;;;;;;;21.10;43.40;;;;;;675159;29;808;-86
2022/02/04 03:09:38;;;;;;;;;;;21.10;43.30;;;;;;674652;29;1366;-85
2022/02/04 03:09:59;;;;;;;;;;;21.10;43.30;;;;;;675070;29;1121;-86
2022/02/04 03:10:19;;;;;;;;;;;21.10;43.30;;;;;;675080;29;922;-86
2022/02/04 03:10:40;;;;;;;;;;;21.10;43.30;;;;;;675177;29;1512;-85
2022/02/04 03:11:01;;;;;;;;;;;21.10;43.30;;;;;;674934;29;1383;-85
2022/02/04 03:11:21;;;;;;;;;;;21.10;43.40;;;;;;674774;29;1215;-86
2022/02/04 03:11:42;;;;;;;;;;;21.10;43.30;;;;;;672663;29;804;-87
2022/02/04 03:12:03;;;;;;;;;;;21.10;43.30;;;;;;672365;29;1224;-87
2022/02/04 03:12:23;;;;;;;;;;;21.10;43.30;;;;;;674728;29;1119;-86
2022/02/04 03:12:44;;;;;;;;;;;21.10;43.30;;;;;;676652;29;1525;-87
2022/02/04 03:13:06;;;;;;;;;;;21.10;43.30;;;;;;683031;28;855;-85
2022/02/04 03:13:28;;;;;;;;;;;21.10;43.30;;;;;;682893;29;1230;-86
2022/02/04 03:13:48;;;;;;;;;;;21.10;43.30;;;;;;682941;29;1922;-86
2022/02/04 03:14:09;;;;;;;;;;;21.10;43.40;;;;;;683613;28;796;-86
2022/02/04 03:14:30;;;;;;;;;;;21.10;43.40;;;;;;685564;28;859;-86
2022/02/04 03:14:52;;;;;;;;;;;21.10;43.30;;;;;;682914;28;906;-85
2022/02/04 03:15:13;;;;;;;;;;;21.10;43.30;;;;;;683763;28;824;-84
2022/02/04 03:15:34;;;;;;;;;;;21.10;43.20;;;;;;685677;28;855;-86
2022/02/04 03:16:01;;;;;;;;;;;21.10;43.30;;;;;;685697;28;902;-85
2022/02/04 03:16:23;;;;;;;;;;;21.10;43.30;;;;;;685633;28;835;-87
2022/02/04 03:16:45;;;;;;;;;;;21.10;43.30;;;;;;687240;28;898;-85
2022/02/04 03:17:09;;;;;;;;;;;21.10;43.30;;;;;;688357;28;839;-86
2022/02/04 03:17:30;;;;;;;;;;;21.10;43.30;;;;;;688318;28;858;-86
2022/02/04 03:18:06;;;;;;;;;;;21.10;43.30;;;;;;685704;28;1398;-86
2022/02/04 03:18:30;;;;;;;;;;;21.10;43.30;;;;;;685643;28;849;-86
2022/02/04 03:18:53;;;;;;;;;;;21.10;43.40;;;;;;685670;28;824;-85
2022/02/04 03:19:14;;;;;;;;;;;21.10;43.40;;;;;;686993;28;1632;-85
2022/02/04 03:19:35;;;;;;;;;;;21.10;43.30;;;;;;688357;28;882;-86
2022/02/04 03:19:59;;;;;;;;;;;21.10;43.30;;;;;;688320;28;878;-85
2022/02/04 03:20:20;;;;;;;;;;;21.10;43.30;;;;;;688298;28;830;-86
2022/02/04 03:20:48;;;;;;;;;;;21.10;43.30;;;;;;687985;28;1122;-85
2022/02/04 03:21:18;;;;;;;;;;;21.10;44.40;;;;;;687352;28;871;-86
2022/02/04 03:21:42;;;;;;;;;;;21.10;43.30;;;;;;688393;28;819;-85
2022/02/04 03:22:08;;;;;;;;;;;21.10;43.30;;;;;;688179;28;1277;-86
2022/02/04 03:22:28;;;;;;;;;;;21.10;43.20;;;;;;685546;28;1363;-85
2022/02/04 03:22:50;;;;;;;;;;;21.10;43.30;;;;;;685626;28;819;-86
2022/02/04 03:23:10;;;;;;;;;;;21.10;43.30;;;;;;685902;28;1354;-85
2022/02/04 03:23:34;;;;;;;;;;;21.10;43.30;;;;;;685616;28;871;-86
2022/02/04 03:24:00;;;;;;;;;;;21.10;43.30;;;;;;685706;28;756;-86
2022/02/04 03:24:23;;;;;;;;;;;21.10;43.30;;;;;;687122;28;507;-87
2022/02/04 03:24:52;;;;;;;;;;;21.10;44.40;;;;;;688230;28;1297;-85
2022/02/04 03:25:15;;;;;;;;;;;21.10;43.30;;;;;;691109;28;855;-84
2022/02/04 03:25:40;;;;;;;;;;;21.10;43.20;;;;;;691092;28;874;-85
2022/02/04 03:26:08;;;;;;;;;;;21.10;43.20;;;;;;690970;28;772;-87
2022/02/04 03:27:03;;;;;;;;;;;21.10;43.30;;;;;;688321;28;644;-85
2022/02/04 03:27:31;;;;;;;;;;;21.10;43.30;;;;;;685485;28;1253;-85
2022/02/04 03:27:57;;;;;;;;;;;21.10;43.20;;;;;;685606;28;900;-86
2022/02/04 03:28:23;;;;;;;;;;;21.10;43.30;;;;;;683965;28;752;-85
2022/02/04 03:28:44;;;;;;;;;;;21.10;43.30;;;;;;685605;28;593;-84
2022/02/04 03:29:04;;;;;;;;;;;21.10;43.30;;;;;;685630;28;830;-85
2022/02/04 03:29:34;;;;;;;;;;;21.10;43.30;;;;;;692463;28;922;-85
2022/02/04 03:30:09;;;;;;;;;;;21.10;43.30;;;;;;699515;28;884;-84
2022/02/04 03:30:34;;;;;;;;;;;21.10;43.30;;;;;;699195;28;1504;-86
2022/02/04 03:30:57;;;;;;;;;;;21.10;43.20;;;;;;696493;28;1287;-87
2022/02/04 03:31:17;;;;;;;;;;;21.10;43.20;;;;;;696375;28;1313;-86
2022/02/04 03:31:44;;;;;;;;;;;21.10;43.20;;;;;;696654;28;771;-86
2022/02/04 03:32:08;;;;;;;;;;;21.10;43.20;;;;;;696704;28;929;-86
2022/02/04 03:32:29;;;;;;;;;;;21.10;43.30;;;;;;699234;28;862;-87
2022/02/04 03:32:58;;;;;;;;;;;21.10;43.30;;;;;;699231;28;1432;-86
2022/02/04 03:33:21;;;;;;;;;;;21.10;43.30;;;;;;699355;28;805;-86
2022/02/04 03:33:44;;;;;;;;;;;21.10;43.20;;;;;;699379;28;970;-86
2022/02/04 03:34:04;;;;;;;;;;;21.10;43.30;;;;;;699435;28;1957;-86
2022/02/04 03:34:25;;;;;;;;;;;21.10;43.50;;;;;;699257;28;964;-86
2022/02/04 03:34:46;;;;;;;;;;;21.10;43.50;;;;;;701501;28;818;-87
2022/02/04 03:35:07;;;;;;;;;;;21.10;43.50;;;;;;702404;28;793;-87
2022/02/04 03:35:27;;;;;;;;;;;21.10;43.50;;;;;;702266;28;790;-87
2022/02/04 03:35:48;;;;;;;;;;;21.10;43.50;;;;;;702291;28;860;-87
2022/02/04 03:36:08;;;;;;;;;;;21.10;43.70;;;;;;699481;28;1189;-87
2022/02/04 03:36:29;;;;;;;;;;;21.10;43.60;;;;;;696462;28;1341;-86
2022/02/04 03:36:50;;;;;;;;;;;21.10;43.70;;;;;;696540;28;886;-86
2022/02/04 03:37:10;;;;;;;;;;;21.10;43.60;;;;;;696722;28;845;-88
2022/02/04 03:37:31;;;;;;;;;;;21.10;43.70;;;;;;693722;28;1352;-86
2022/02/04 03:37:52;;;;;;;;;;;21.20;43.70;;;;;;691224;28;1348;-86
2022/02/04 03:38:13;;;;;;;;;;;21.20;43.70;;;;;;694184;28;1322;-83
2022/02/04 03:38:34;;;;;;;;;;;21.20;43.70;;;;;;696718;28;837;-86
2022/02/04 03:38:54;;;;;;;;;;;21.20;43.70;;;;;;693726;28;947;-87
2022/02/04 03:39:15;;;;;;;;;;;21.20;43.70;;;;;;693810;28;1195;-86
2022/02/04 03:39:36;;;;;;;;;;;21.20;43.70;;;;;;693906;28;869;-86
2022/02/04 03:39:56;;;;;;;;;;;21.20;43.70;;;;;;694042;28;1263;-87
2022/02/04 03:40:17;;;;;;;;;;;21.20;43.70;;;;;;696629;28;811;-87
2022/02/04 03:40:38;;;;;;;;;;;21.20;43.60;;;;;;697180;28;846;-86
2022/02/04 03:40:58;;;;;;;;;;;21.20;43.60;;;;;;696809;28;1007;-87
2022/02/04 03:41:19;;;;;;;;;;;21.20;43.60;;;;;;699293;28;837;-86
2022/02/04 03:41:39;;;;;;;;;;;21.20;43.70;;;;;;699636;28;866;-86
2022/02/04 03:42:00;;;;;;;;;;;21.20;43.60;;;;;;697014;28;1354;-84
2022/02/04 03:42:21;;;;;;;;;;;21.20;43.60;;;;;;697040;28;932;-81
2022/02/04 03:42:41;;;;;;;;;;;21.20;43.60;;;;;;697119;28;1151;-82
2022/02/04 03:43:02;;;;;;;;;;;21.30;43.70;;;;;;697037;28;890;-81
2022/02/04 03:43:22;;;;;;;;;;;21.20;43.60;;;;;;694288;28;1304;-88
2022/02/04 03:43:43;;;;;;;;;;;21.30;44.80;;;;;;695010;28;1111;-87
2022/02/04 03:44:04;;;;;;;;;;;21.30;43.60;;;;;;697217;28;568;-86
2022/02/04 03:44:24;;;;;;;;;;;21.20;43.60;;;;;;696618;28;1097;-86
2022/02/04 03:44:45;;;;;;;;;;;21.30;43.60;;;;;;697513;28;889;-86
2022/02/04 03:45:05;;;;;;;;;;;21.30;43.60;;;;;;695081;28;1291;-84
2022/02/04 03:45:26;;;;;;;;;;;21.30;43.60;;;;;;697728;28;838;-83
2022/02/04 03:45:47;;;;;;;;;;;21.30;43.60;;;;;;697628;28;857;-87
2022/02/04 03:46:07;;;;;;;;;;;21.30;43.60;;;;;;695289;28;1281;-83
2022/02/04 03:46:28;;;;;;;;;;;21.30;43.60;;;;;;697881;28;853;-87
2022/02/04 03:46:48;;;;;;;;;;;21.30;44.60;;;;;;695499;28;1064;-88
2022/02/04 03:47:09;;;;;;;;;;;21.30;44.60;;;;;;698013;28;790;-86
2022/02/04 03:47:29;;;;;;;;;;;21.30;43.60;;;;;;697999;28;826;-87
2022/02/04 03:47:50;;;;;;;;;;;21.00;43.40;;;;;;697735;28;1448;-83
2022/02/04 03:48:11;;;;;;;;;;;21.30;43.50;;;;;;700631;28;914;-85
2022/02/04 03:48:34;;;;;;;;;;;21.30;43.50;;;;;;697916;28;1394;-83
2022/02/04 03:48:56;;;;;;;;;;;21.30;43.50;;;;;;700098;28;913;-86
2022/02/04 03:49:16;;;;;;;;;;;21.30;43.50;;;;;;697316;28;1204;-85
2022/02/04 03:49:37;;;;;;;;;;;21.30;43.50;;;;;;698755;28;1192;-83
2022/02/04 03:49:58;;;;;;;;;;;21.30;43.50;;;;;;699861;28;1259;-81
2022/02/04 03:50:19;;;;;;;;;;;21.30;43.50;;;;;;700920;28;1376;-86
2022/02/04 03:50:39;;;;;;;;;;;21.30;43.40;;;;;;702516;28;1004;-88
2022/02/04 03:51:00;;;;;;;;;;;21.30;43.40;;;;;;701012;28;1032;-87
2022/02/04 03:51:21;;;;;;;;;;;21.30;43.30;;;;;;697244;28;1085;-87
2022/02/04 03:51:41;;;;;;;;;;;21.30;43.30;;;;;;697247;28;866;-87
2022/02/04 03:52:02;;;;;;;;;;;21.30;44.40;;;;;;697098;28;1259;-87
2022/02/04 03:52:23;;;;;;;;;;;21.40;43.40;;;;;;696857;28;1306;-86
2022/02/04 03:52:44;;;;;;;;;;;21.30;43.40;;;;;;696995;28;825;-85
2022/02/04 03:53:09;;;;;;;;;;;21.30;43.30;;;;;;697342;28;825;-87
2022/02/04 03:53:30;;;;;;;;;;;21.30;43.30;;;;;;697057;28;919;-86
2022/02/04 03:53:51;;;;;;;;;;;21.40;43.40;;;;;;697125;28;1901;-85
2022/02/04 03:54:11;;;;;;;;;;;21.30;43.30;;;;;;695505;28;1183;-87
2022/02/04 03:54:32;;;;;;;;;;;21.30;43.30;;;;;;697111;28;841;-86
2022/02/04 03:54:52;;;;;;;;;;;21.40;43.40;;;;;;697119;28;964;-86
2022/02/04 03:55:13;;;;;;;;;;;21.30;43.30;;;;;;697404;28;1119;-86
2022/02/04 03:55:33;;;;;;;;;;;21.30;43.30;;;;;;699967;28;952;-85
2022/02/04 03:55:55;;;;;;;;;;;21.30;43.30;;;;;;700286;28;837;-87
2022/02/04 03:56:15;;;;;;;;;;;21.30;43.30;;;;;;702963;28;845;-87
2022/02/04 03:56:36;;;;;;;;;;;21.30;43.20;;;;;;699765;28;1762;-87
2022/02/04 03:56:57;;;;;;;;;;;21.30;43.20;;;;;;697005;28;1429;-85
2022/02/04 03:57:18;;;;;;;;;;;21.30;43.30;;;;;;697028;28;1195;-85
2022/02/04 03:57:39;;;;;;;;;;;21.40;43.30;;;;;;694429;28;1296;-86